Time;durP1;ratioP1;P1;durP2;ratioP2;P2;SDS_P1;SDS_P2;PMS_P1;PMS_P2;Temp;Humidity;BMP_temperature;BMP_pressure;BME280_temperature;BME280_humidity;BME280_pressure;Samples;Min_cycle;Max_cycle;Signal;HPM_P1;HPM_P2
2023/07/30 00:00:38;;;;;;;3.47;2.15;;;;;;;19.43;68.35;94424.97;5069551;28;20268;-75
2023/07/30 00:03:05;;;;;;;8.32;2.30;;;;;;;19.41;68.77;94428.13;5068714;28;20199;-75
2023/07/30 00:05:32;;;;;;;8.40;2.63;;;;;;;19.38;69.27;94428.13;5069604;28;20626;-75
2023/07/30 00:07:59;;;;;;;2.47;2.20;;;;;;;19.35;69.95;94423.41;5069572;28;20729;-74
2023/07/30 00:10:25;;;;;;;5.00;2.55;;;;;;;19.40;69.45;94425.78;5069556;28;20604;-75
2023/07/30 00:12:54;;;;;;;4.55;2.45;;;;;;;19.34;70.19;94422.63;5069599;28;20209;-75
2023/07/30 00:15:21;;;;;;;3.78;2.40;;;;;;;19.30;69.97;94418.28;5069720;28;20276;-75
2023/07/30 00:17:47;;;;;;;3.15;2.15;;;;;;;19.23;70.57;94423.75;5069579;28;20203;-75
2023/07/30 00:20:14;;;;;;;7.90;2.55;;;;;;;19.18;70.97;94422.16;5069608;28;20214;-75
2023/07/30 00:22:41;;;;;;;3.55;2.38;;;;;;;19.12;71.21;94408.03;5069128;28;20211;-75
2023/07/30 00:25:09;;;;;;;4.40;2.40;;;;;;;19.15;71.40;94418.22;5069719;28;20286;-75
2023/07/30 00:27:35;;;;;;;6.10;3.03;;;;;;;19.11;71.40;94422.94;5069389;28;20700;-75
2023/07/30 00:30:04;;;;;;;3.15;2.20;;;;;;;19.08;71.42;94420.97;5069245;28;20203;-75
2023/07/30 00:32:31;;;;;;;6.78;2.72;;;;;;;19.03;71.29;94413.09;5069292;28;20226;-75
2023/07/30 00:34:58;;;;;;;3.17;2.35;;;;;;;19.02;70.82;94416.22;5069580;28;20207;-75
2023/07/30 00:37:24;;;;;;;4.70;2.35;;;;;;;19.09;70.75;94399.78;5069055;28;21031;-75
2023/07/30 00:39:51;;;;;;;3.60;2.00;;;;;;;19.10;70.85;94407.63;5068940;28;20231;-75
2023/07/30 00:42:18;;;;;;;2.50;2.20;;;;;;;19.11;71.37;94406.47;5069360;28;20211;-74
2023/07/30 00:44:45;;;;;;;3.75;2.35;;;;;;;19.15;71.47;94410.00;5069647;28;20268;-74
2023/07/30 00:47:13;;;;;;;3.63;2.13;;;;;;;19.07;71.17;94411.16;5064321;28;20242;-75
2023/07/30 00:49:39;;;;;;;6.00;2.70;;;;;;;19.02;70.64;94408.75;5069067;28;20229;-74
2023/07/30 00:52:08;;;;;;;4.88;2.58;;;;;;;18.93;70.70;94413.84;5069485;28;20290;-74
2023/07/30 00:54:35;;;;;;;3.67;2.38;;;;;;;18.84;70.73;94416.16;5069515;28;20674;-75
2023/07/30 00:57:02;;;;;;;2.92;2.08;;;;;;;18.89;70.90;94407.53;5068779;28;20654;-75
2023/07/30 00:59:29;;;;;;;5.97;2.42;;;;;;;18.94;71.92;94414.63;5070196;28;20630;-74
2023/07/30 01:01:58;;;;;;;2.63;2.10;;;;;;;18.90;72.36;94414.59;5077634;28;20199;-75
2023/07/30 01:04:27;;;;;;;3.00;2.15;;;;;;;18.90;72.57;94414.59;5068572;28;20616;-75
2023/07/30 01:06:53;;;;;;;4.68;2.50;;;;;;;18.90;72.89;94409.09;5069036;28;20199;-75
2023/07/30 01:09:21;;;;;;;2.88;1.98;;;;;;;18.82;72.70;94413.00;5068779;28;20244;-75
2023/07/30 01:11:48;;;;;;;4.20;2.55;;;;;;;18.80;72.44;94412.59;5068856;28;20203;-74
2023/07/30 01:14:15;;;;;;;5.28;2.55;;;;;;;18.70;73.13;94416.09;5082440;28;20441;-75
2023/07/30 01:16:42;;;;;;;5.30;2.25;;;;;;;18.75;73.00;94418.44;5068381;28;20195;-75
2023/07/30 01:19:11;;;;;;;3.30;2.53;;;;;;;18.77;71.63;94413.38;5081925;28;20760;-75
2023/07/30 01:21:39;;;;;;;3.03;2.25;;;;;;;18.80;71.56;94420.84;5081623;28;20213;-75
2023/07/30 01:24:05;;;;;;;3.10;2.38;;;;;;;18.79;72.41;94422.00;5082258;28;20601;-75
2023/07/30 01:26:38;;;;;;;8.15;2.65;;;;;;;18.77;72.11;94425.13;5068376;28;20210;-74
2023/07/30 01:29:10;;;;;;;3.53;2.50;;;;;;;18.71;71.26;94414.91;5068973;28;20191;-74
2023/07/30 01:31:41;;;;;;;3.05;2.20;;;;;;;18.66;72.33;94409.78;5068495;28;20239;-74
2023/07/30 01:34:10;;;;;;;3.97;2.40;;;;;;;18.64;71.31;94409.38;5069450;28;20206;-75
2023/07/30 01:36:40;;;;;;;2.92;2.05;;;;;;;18.69;70.80;94414.50;5072605;28;20214;-75
2023/07/30 01:39:08;;;;;;;6.05;2.58;;;;;;;18.57;71.46;94420.28;5072740;28;20234;-74
2023/07/30 01:41:35;;;;;;;4.18;2.22;;;;;;;18.60;70.46;94417.59;5072492;28;20199;-75
2023/07/30 01:44:02;;;;;;;4.03;2.40;;;;;;;18.55;70.60;94420.69;5072617;28;20210;-75
2023/07/30 01:46:29;;;;;;;3.38;2.45;;;;;;;18.60;70.83;94416.78;5071950;28;20600;-75
2023/07/30 01:48:55;;;;;;;3.55;2.20;;;;;;;18.52;71.17;94418.69;5072317;28;20269;-75
2023/07/30 01:51:22;;;;;;;3.20;2.38;;;;;;;18.44;71.94;94419.84;5071903;28;20257;-75
2023/07/30 01:53:50;;;;;;;4.50;2.17;;;;;;;18.31;72.65;94422.06;5072036;28;20195;-75
2023/07/30 01:56:17;;;;;;;4.07;2.60;;;;;;;18.26;72.87;94421.66;5072004;28;20217;-75
2023/07/30 01:58:44;;;;;;;3.78;2.40;;;;;;;18.27;72.77;94425.97;5072245;28;20231;-74
2023/07/30 02:01:11;;;;;;;2.65;2.28;;;;;;;18.26;73.07;94419.69;5082126;28;20203;-75
2023/07/30 02:03:37;;;;;;;2.33;2.03;;;;;;;18.17;73.15;94424.75;5071853;28;20203;-75
2023/07/30 02:06:04;;;;;;;4.70;2.20;;;;;;;18.21;72.77;94430.22;5071777;28;20210;-74
2023/07/30 02:08:31;;;;;;;5.32;2.72;;;;;;;18.25;72.39;94428.31;5071872;28;20210;-75
2023/07/30 02:11:00;;;;;;;3.95;2.33;;;;;;;18.14;72.63;94425.50;5071917;28;20670;-74
2023/07/30 02:13:27;;;;;;;5.28;2.47;;;;;;;18.28;72.81;94431.09;5071547;28;20276;-74
2023/07/30 02:15:54;;;;;;;4.00;2.47;;;;;;;18.23;73.02;94431.44;5058751;28;20202;-75
2023/07/30 02:18:20;;;;;;;5.88;2.10;;;;;;;18.19;73.33;94429.81;5071472;28;20203;-75
2023/07/30 02:20:47;;;;;;;3.63;2.40;;;;;;;18.17;73.17;94430.22;5071691;28;20207;-74
2023/07/30 02:23:16;;;;;;;3.13;2.22;;;;;;;18.14;73.84;94433.72;5084792;28;20210;-74
2023/07/30 02:25:43;;;;;;;2.83;2.17;;;;;;;18.10;73.60;94438.38;5071242;28;20234;-75
2023/07/30 02:28:11;;;;;;;3.53;2.17;;;;;;;18.03;74.28;94435.59;5071033;28;20199;-75
2023/07/30 02:30:38;;;;;;;2.95;2.15;;;;;;;17.99;74.37;94448.47;5071104;28;20342;-74
2023/07/30 02:33:05;;;;;;;3.00;2.28;;;;;;;17.94;75.01;94446.84;5071197;28;20921;-75
2023/07/30 02:35:33;;;;;;;4.55;2.63;;;;;;;17.92;74.89;94448.41;5071265;28;20210;-74
2023/07/30 02:37:59;;;;;;;2.42;2.22;;;;;;;17.89;74.62;94454.66;5071086;28;20252;-74
2023/07/30 02:40:26;;;;;;;4.70;2.75;;;;;;;17.90;75.11;94445.28;5070905;28;20728;-74
2023/07/30 02:42:53;;;;;;;3.92;2.08;;;;;;;17.91;75.08;94452.31;5070738;28;20199;-74
2023/07/30 02:45:21;;;;;;;2.65;2.22;;;;;;;17.98;75.44;94447.69;5070668;28;20195;-74
2023/07/30 02:47:48;;;;;;;4.10;2.05;;;;;;;18.05;75.37;94450.47;5071424;28;20199;-74
2023/07/30 02:50:15;;;;;;;3.90;2.30;;;;;;;17.95;75.32;94451.19;5071151;28;20205;-74
2023/07/30 02:52:41;;;;;;;4.55;2.55;;;;;;;17.82;75.72;94443.63;5070813;28;20210;-74
2023/07/30 02:55:09;;;;;;;4.50;2.33;;;;;;;17.79;75.91;94449.84;5071538;28;20210;-74
2023/07/30 02:57:36;;;;;;;3.05;2.35;;;;;;;17.74;75.59;94454.53;5071059;28;20252;-74
2023/07/30 03:00:04;;;;;;;2.67;2.10;;;;;;;17.83;76.08;94445.19;5077050;28;20230;-75
2023/07/30 03:02:32;;;;;;;5.70;2.63;;;;;;;17.88;75.65;94444.84;5088175;28;20210;-75
2023/07/30 03:04:59;;;;;;;2.85;1.88;;;;;;;17.87;75.77;94457.00;5071048;28;20205;-74
2023/07/30 03:07:26;;;;;;;6.20;2.63;;;;;;;17.87;75.14;94451.50;5070629;28;20504;-75
2023/07/30 03:09:53;;;;;;;3.67;2.20;;;;;;;17.93;74.39;94455.47;5070843;28;20210;-75
2023/07/30 03:12:20;;;;;;;5.50;2.28;;;;;;;17.95;73.35;94453.91;5070335;28;20203;-75
2023/07/30 03:14:46;;;;;;;3.33;2.30;;;;;;;18.02;72.56;94461.44;5071033;28;20203;-75
2023/07/30 03:17:13;;;;;;;3.63;2.55;;;;;;;18.07;73.30;94455.59;5070790;28;20217;-75
2023/07/30 03:19:41;;;;;;;4.13;2.60;;;;;;;18.14;74.17;94447.44;5070410;28;20254;-75
2023/07/30 03:22:08;;;;;;;3.50;2.55;;;;;;;18.20;74.81;94443.16;5070382;28;20214;-74
2023/07/30 03:24:35;;;;;;;3.67;2.55;;;;;;;18.14;75.06;94450.16;5070186;28;20194;-75
2023/07/30 03:27:02;;;;;;;4.28;2.70;;;;;;;18.29;75.05;94440.88;5070156;28;20289;-74
2023/07/30 03:29:28;;;;;;;6.90;2.70;;;;;;;18.68;74.46;94443.13;5070499;28;20538;-75
2023/07/30 03:31:55;;;;;;;2.95;2.55;;;;;;;19.34;72.28;94432.81;5070192;28;20424;-74
2023/07/30 03:34:22;;;;;;;3.95;2.67;;;;;;;20.09;69.51;94439.25;5070447;28;20209;-74
2023/07/30 03:36:50;;;;;;;3.20;2.45;;;;;;;20.81;67.59;94435.25;5070607;28;20562;-74
2023/07/30 03:39:17;;;;;;;3.78;2.45;;;;;;;21.60;65.27;94442.03;5070519;28;20315;-74
2023/07/30 03:41:44;;;;;;;4.25;3.00;;;;;;;22.22;62.59;94427.47;5070656;28;20306;-74
2023/07/30 03:44:10;;;;;;;4.20;2.80;;;;;;;22.62;61.12;94429.47;5070473;28;20609;-74
2023/07/30 03:46:37;;;;;;;2.63;2.20;;;;;;;23.10;59.77;94428.59;5070086;28;20206;-74
2023/07/30 03:49:04;;;;;;;6.53;3.28;;;;;;;23.70;57.31;94425.09;5069968;28;20210;-75
2023/07/30 03:51:32;;;;;;;4.68;3.22;;;;;;;24.22;56.03;94429.47;5069754;28;20298;-74
2023/07/30 03:54:01;;;;;;;4.07;2.88;;;;;;;24.40;54.78;94438.31;5069971;28;20238;-75
2023/07/30 03:56:28;;;;;;;3.88;3.08;;;;;;;24.89;52.52;94435.84;5069594;28;20205;-75
2023/07/30 03:58:54;;;;;;;2.88;2.50;;;;;;;25.54;51.57;94431.44;5069430;28;20207;-75
2023/07/30 04:01:21;;;;;;;6.82;2.90;;;;;;;24.92;52.69;94435.00;5079551;28;20207;-75
2023/07/30 04:03:48;;;;;;;3.92;2.83;;;;;;;25.33;51.89;94432.66;5070188;28;20264;-74
2023/07/30 04:06:15;;;;;;;4.57;2.38;;;;;;;26.05;50.14;94437.50;5069627;28;20952;-75
2023/07/30 04:08:41;;;;;;;6.82;2.45;;;;;;;26.12;50.00;94440.88;5069619;28;20199;-75
2023/07/30 04:11:10;;;;;;;3.17;2.22;;;;;;;26.37;49.87;94447.88;5069708;28;20206;-75
2023/07/30 04:13:36;;;;;;;6.32;2.95;;;;;;;26.97;48.33;94442.81;5069632;28;20264;-75
2023/07/30 04:16:03;;;;;;;7.90;2.60;;;;;;;27.44;47.88;94434.78;5069454;28;20570;-75
2023/07/30 04:18:30;;;;;;;6.18;2.72;;;;;;;27.98;46.46;94434.00;5069499;28;20206;-75
2023/07/30 04:20:57;;;;;;;4.90;3.08;;;;;;;28.17;45.40;94439.34;5069520;28;20230;-75
2023/07/30 04:23:24;;;;;;;4.00;2.28;;;;;;;29.11;43.50;94429.56;5069022;28;20198;-75
2023/07/30 04:25:50;;;;;;;4.43;2.63;;;;;;;29.78;41.46;94434.72;5069606;28;20263;-75
2023/07/30 04:28:19;;;;;;;5.82;2.92;;;;;;;29.70;41.45;94434.97;5083303;28;20206;-75
2023/07/30 04:30:47;;;;;;;3.30;2.83;;;;;;;29.60;41.33;94438.19;5069760;28;20230;-75
2023/07/30 04:33:14;;;;;;;3.67;2.90;;;;;;;29.58;41.51;94435.84;5068922;28;20235;-75
2023/07/30 04:35:41;;;;;;;5.40;3.60;;;;;;;29.88;41.05;94437.13;5069455;28;20210;-75
2023/07/30 04:38:08;;;;;;;4.22;3.00;;;;;;;29.85;41.13;94437.25;5069452;28;20203;-80
2023/07/30 04:40:35;;;;;;;3.30;3.00;;;;;;;29.88;41.10;94437.13;5069301;28;20232;-78
2023/07/30 04:43:01;;;;;;;5.25;3.42;;;;;;;30.17;40.59;94436.03;5069239;28;20206;-80
2023/07/30 04:45:29;;;;;;;7.28;3.60;;;;;;;31.01;39.04;94448.59;5067625;28;20206;-80
2023/07/30 04:47:57;;;;;;;4.80;3.28;;;;;;;30.15;39.98;94444.88;5066042;28;20195;-80
2023/07/30 04:50:24;;;;;;;4.47;2.95;;;;;;;30.24;39.95;94442.13;5069193;28;20616;-80
2023/07/30 04:52:50;;;;;;;5.30;3.40;;;;;;;30.46;39.52;94441.28;5069024;28;20265;-77
2023/07/30 04:55:17;;;;;;;4.35;3.15;;;;;;;31.35;37.83;94441.94;5068930;28;20198;-75
2023/07/30 04:57:44;;;;;;;3.55;3.05;;;;;;;31.28;37.81;94444.28;5071577;28;20561;-76
2023/07/30 05:00:12;;;;;;;4.68;3.38;;;;;;;31.53;37.18;94449.56;5082142;28;20570;-75
2023/07/30 05:02:40;;;;;;;5.82;3.08;;;;;;;32.22;36.40;94448.88;5068558;28;20578;-76
2023/07/30 05:05:07;;;;;;;4.55;2.95;;;;;;;31.98;35.19;94439.56;5068726;28;20260;-76
2023/07/30 05:07:34;;;;;;;4.40;3.00;;;;;;;33.05;33.69;94444.44;5071307;28;20203;-76
2023/07/30 05:10:01;;;;;;;2.65;2.45;;;;;;;32.84;33.00;94442.69;5072869;28;20202;-76
2023/07/30 05:12:27;;;;;;;3.65;2.80;;;;;;;32.54;33.90;94446.53;5071677;28;20650;-76
2023/07/30 05:14:54;;;;;;;4.38;3.40;;;;;;;32.20;34.47;94440.16;5072627;28;20505;-76
2023/07/30 05:17:21;;;;;;;4.82;2.53;;;;;;;33.24;33.16;94436.66;5072681;28;20650;-77
2023/07/30 05:19:49;;;;;;;4.10;2.88;;;;;;;32.41;33.38;94447.53;5072636;28;20288;-76
2023/07/30 05:22:16;;;;;;;4.00;2.58;;;;;;;31.79;34.17;94450.81;5072595;28;20211;-77
2023/07/30 05:24:43;;;;;;;2.95;2.35;;;;;;;32.54;34.00;94447.31;5072928;28;20211;-75
2023/07/30 05:27:10;;;;;;;3.10;2.75;;;;;;;32.95;32.67;94448.53;5072772;28;20235;-78
2023/07/30 05:29:36;;;;;;;3.55;3.03;;;;;;;34.41;31.04;94441.69;5071544;28;20276;-77
2023/07/30 05:32:03;;;;;;;3.35;3.05;;;;;;;34.50;30.66;94435.16;5071129;28;20231;-76
2023/07/30 05:34:30;;;;;;;3.20;2.70;;;;;;;34.76;30.92;94438.09;5071553;28;20661;-75
2023/07/30 05:36:58;;;;;;;2.97;2.38;;;;;;;34.34;30.62;94439.25;5071534;28;20685;-76
2023/07/30 05:39:26;;;;;;;3.65;2.58;;;;;;;33.83;31.15;94448.84;5072091;28;20823;-76
2023/07/30 05:41:52;;;;;;;3.35;3.05;;;;;;;34.62;30.56;94444.53;5059222;28;20203;-75
2023/07/30 05:44:19;;;;;;;5.00;2.80;;;;;;;34.83;30.37;94449.00;5072345;28;20202;-74
2023/07/30 05:46:46;;;;;;;2.72;2.53;;;;;;;35.23;29.39;94449.03;5067353;28;20199;-75
2023/07/30 05:49:14;;;;;;;3.78;2.38;;;;;;;35.20;29.73;94452.81;5085674;28;20690;-77
2023/07/30 05:51:41;;;;;;;3.63;2.83;;;;;;;35.36;29.69;94445.09;5072442;28;20214;-77
2023/07/30 05:54:09;;;;;;;3.33;2.83;;;;;;;34.17;31.39;94446.59;5072302;28;20539;-76
2023/07/30 05:56:36;;;;;;;4.53;2.85;;;;;;;34.16;31.52;94447.88;5072473;28;20203;-77
2023/07/30 05:59:03;;;;;;;4.88;2.92;;;;;;;32.98;32.99;94453.19;5072604;28;20206;-75
2023/07/30 06:01:29;;;;;;;2.90;2.60;;;;;;;32.02;34.74;94457.00;5072348;28;20233;-76
2023/07/30 06:03:56;;;;;;;2.95;2.42;;;;;;;32.37;34.47;94460.97;5072308;28;20199;-75
2023/07/30 06:06:27;;;;;;;3.03;2.72;;;;;;;32.89;34.28;94461.69;5071872;28;20612;-76
2023/07/30 06:08:54;;;;;;;3.25;2.88;;;;;;;33.53;32.94;94464.06;5072046;28;20249;-77
2023/07/30 06:11:22;;;;;;;3.33;2.90;;;;;;;34.23;31.70;94459.50;5071630;28;20531;-78
2023/07/30 06:13:49;;;;;;;2.85;2.60;;;;;;;35.39;30.13;94455.41;5072091;28;20289;-77
2023/07/30 06:16:16;;;;;;;2.95;2.50;;;;;;;35.20;31.40;94461.28;5071136;28;20203;-79
2023/07/30 06:18:42;;;;;;;2.95;2.50;;;;;;;34.07;31.97;94450.78;5071649;28;20264;-77
2023/07/30 06:21:09;;;;;;;2.92;2.63;;;;;;;35.72;29.68;94444.50;5071380;28;20230;-79
2023/07/30 06:23:36;;;;;;;2.63;2.42;;;;;;;35.01;30.19;94454.34;5071892;28;20211;-77
2023/07/30 06:26:03;;;;;;;3.17;2.85;;;;;;;34.94;31.36;94454.78;5071476;28;20221;-76
2023/07/30 06:28:31;;;;;;;3.65;2.78;;;;;;;34.98;30.79;94452.53;5073323;28;20268;-76
2023/07/30 06:31:00;;;;;;;4.15;2.85;;;;;;;35.55;29.75;94452.75;5082200;28;20284;-75
2023/07/30 06:33:27;;;;;;;3.53;2.88;;;;;;;36.02;29.65;94455.59;5071201;28;20284;-75
2023/07/30 06:35:54;;;;;;;3.20;2.90;;;;;;;34.29;30.83;94448.38;5071657;28;20199;-74
2023/07/30 06:38:21;;;;;;;3.33;2.78;;;;;;;34.53;31.73;94443.41;5071059;28;20678;-74
2023/07/30 06:40:48;;;;;;;3.10;2.80;;;;;;;35.17;30.54;94438.94;5071158;28;20284;-74
2023/07/30 06:43:15;;;;;;;3.67;2.90;;;;;;;33.93;31.97;94445.94;5071240;28;20205;-75
2023/07/30 06:45:43;;;;;;;3.20;2.90;;;;;;;35.28;29.90;94437.06;5070753;28;20199;-76
2023/07/30 06:48:09;;;;;;;4.45;2.80;;;;;;;35.86;29.40;94432.38;5071426;28;20214;-75
2023/07/30 06:50:36;;;;;;;3.92;2.90;;;;;;;34.83;31.21;94432.09;5071287;28;20264;-75
2023/07/30 06:53:03;;;;;;;3.50;2.92;;;;;;;34.02;32.00;94431.78;5071061;28;20236;-75
2023/07/30 06:55:30;;;;;;;3.83;3.42;;;;;;;35.34;30.23;94425.88;5071128;28;20203;-75
2023/07/30 06:57:56;;;;;;;4.93;3.25;;;;;;;35.64;30.90;94426.47;5070952;28;20210;-76
2023/07/30 07:00:23;;;;;;;4.35;2.63;;;;;;;35.29;31.16;94423.75;5079876;28;20230;-77
2023/07/30 07:02:51;;;;;;;3.33;3.00;;;;;;;36.01;29.59;94425.84;5069970;28;20199;-76
2023/07/30 07:05:18;;;;;;;5.05;3.10;;;;;;;34.75;30.21;94425.28;5068720;28;20207;-77
2023/07/30 07:07:46;;;;;;;4.22;2.53;;;;;;;35.39;29.60;94415.94;5080370;28;21093;-77
2023/07/30 07:10:13;;;;;;;3.30;2.80;;;;;;;36.69;28.73;94411.78;5074868;28;20198;-75
2023/07/30 07:12:40;;;;;;;3.92;2.80;;;;;;;36.58;28.82;94406.84;5070064;28;20195;-77
2023/07/30 07:15:10;;;;;;;3.30;2.80;;;;;;;36.80;28.32;94405.47;5070546;28;20198;-81
2023/07/30 07:17:37;;;;;;;4.68;3.10;;;;;;;36.48;29.06;94408.31;5070249;28;20203;-75
2023/07/30 07:20:07;;;;;;;3.40;2.85;;;;;;;34.70;29.64;94406.28;5070609;28;20198;-81
2023/07/30 07:22:34;;;;;;;3.35;2.80;;;;;;;35.33;29.04;94401.00;5069610;28;20214;-73
2023/07/30 07:25:00;;;;;;;5.25;2.65;;;;;;;35.73;28.84;94394.53;5069469;28;20525;-76
2023/07/30 07:27:27;;;;;;;3.97;2.67;;;;;;;35.56;29.01;94394.34;5069346;28;20686;-77
2023/07/30 07:29:54;;;;;;;3.10;2.58;;;;;;;35.67;29.09;94390.88;5069379;28;20292;-74
2023/07/30 07:32:21;;;;;;;3.40;3.10;;;;;;;36.09;29.61;94396.69;5068928;28;20732;-76
2023/07/30 07:34:48;;;;;;;3.30;2.97;;;;;;;34.04;30.74;94395.50;5068486;28;20281;-79
2023/07/30 07:37:18;;;;;;;4.68;2.80;;;;;;;33.60;31.17;94385.03;5063671;28;20283;-74
2023/07/30 07:39:45;;;;;;;4.45;2.78;;;;;;;34.33;30.04;94386.28;5067644;28;20661;-74
2023/07/30 07:42:12;;;;;;;4.35;2.90;;;;;;;35.28;29.83;94389.16;5069692;28;20223;-74
2023/07/30 07:44:39;;;;;;;3.70;2.83;;;;;;;33.81;30.57;94386.69;5075219;28;20199;-77
2023/07/30 07:47:06;;;;;;;4.03;2.65;;;;;;;33.59;31.06;94389.09;5067762;28;20775;-77
2023/07/30 07:49:33;;;;;;;4.85;3.10;;;;;;;33.10;32.33;94387.59;5068722;28;20211;-77
2023/07/30 07:51:59;;;;;;;4.28;3.10;;;;;;;33.74;31.61;94384.25;5069468;28;20673;-76
2023/07/30 07:54:28;;;;;;;3.95;2.65;;;;;;;34.43;30.50;94376.47;5069338;28;20203;-78
2023/07/30 07:56:54;;;;;;;2.88;2.67;;;;;;;35.18;29.44;94384.94;5069336;28;20203;-77
2023/07/30 07:59:21;;;;;;;3.47;2.95;;;;;;;34.13;30.54;94375.72;5069206;28;20245;-74
2023/07/30 08:01:48;;;;;;;3.40;3.10;;;;;;;32.74;32.71;94387.88;5074268;28;20721;-76
2023/07/30 08:04:15;;;;;;;3.35;3.00;;;;;;;32.91;31.91;94374.19;5068611;28;20570;-76
2023/07/30 08:06:42;;;;;;;4.13;2.97;;;;;;;33.56;31.81;94373.19;5067785;28;20200;-78
2023/07/30 08:09:11;;;;;;;3.17;2.85;;;;;;;33.35;31.35;94375.09;5066339;28;20640;-76
2023/07/30 08:11:39;;;;;;;4.47;3.08;;;;;;;33.66;30.70;94371.06;5070872;28;20206;-76
2023/07/30 08:14:06;;;;;;;3.88;2.90;;;;;;;33.45;31.39;94373.00;5068458;28;20202;-77
2023/07/30 08:16:33;;;;;;;3.13;2.60;;;;;;;32.80;31.22;94363.53;5068596;28;20199;-76
2023/07/30 08:19:00;;;;;;;4.70;3.00;;;;;;;33.29;30.57;94370.63;5068265;28;20203;-77
2023/07/30 08:21:27;;;;;;;4.97;2.90;;;;;;;33.40;31.33;94354.78;5070072;28;20229;-77
2023/07/30 08:23:53;;;;;;;3.47;2.75;;;;;;;32.82;30.95;94375.03;5069062;28;20195;-78
2023/07/30 08:26:20;;;;;;;4.85;4.20;;;;;;;33.16;31.50;94368.84;5068548;28;20195;-77
2023/07/30 08:28:48;;;;;;;3.95;3.25;;;;;;;33.13;30.80;94364.19;5069864;28;20218;-78
2023/07/30 08:31:15;;;;;;;5.47;3.15;;;;;;;32.87;31.52;94357.53;5088900;28;20263;-77
2023/07/30 08:33:42;;;;;;;3.72;3.35;;;;;;;32.45;32.17;94361.19;5068982;28;20191;-76
2023/07/30 08:36:08;;;;;;;4.93;3.40;;;;;;;31.58;33.66;94367.69;5068617;28;20663;-79
2023/07/30 08:38:35;;;;;;;4.72;3.00;;;;;;;32.01;32.92;94346.13;5055292;28;20202;-74
2023/07/30 08:41:02;;;;;;;4.50;3.10;;;;;;;32.42;32.91;94350.16;5068985;28;20227;-75
2023/07/30 08:43:30;;;;;;;3.92;2.90;;;;;;;33.17;31.44;94347.16;5080518;28;20941;-75
2023/07/30 08:45:58;;;;;;;3.72;3.05;;;;;;;33.90;30.98;94343.66;5068852;28;20198;-77
2023/07/30 08:48:26;;;;;;;3.58;3.05;;;;;;;33.76;30.79;94333.97;5081215;28;20229;-78
2023/07/30 08:50:57;;;;;;;3.75;2.97;;;;;;;32.25;33.50;94347.00;5082269;28;20206;-79
2023/07/30 08:53:25;;;;;;;5.47;3.50;;;;;;;31.81;33.46;94345.91;5068728;28;20203;-78
2023/07/30 08:55:53;;;;;;;4.28;3.42;;;;;;;31.06;34.15;94344.41;5068826;28;20214;-74
2023/07/30 08:58:20;;;;;;;5.80;4.22;;;;;;;31.87;34.10;94338.38;5068217;28;20202;-74
2023/07/30 09:00:50;;;;;;;4.10;3.65;;;;;;;32.24;33.06;94333.44;5068387;28;20227;-74
2023/07/30 09:03:19;;;;;;;5.80;3.42;;;;;;;32.25;33.29;94330.16;5068028;28;20221;-74
2023/07/30 09:05:46;;;;;;;3.63;3.08;;;;;;;31.88;35.27;94340.72;5068305;28;20198;-73
2023/07/30 09:08:13;;;;;;;4.03;3.20;;;;;;;31.78;33.27;94331.59;5068827;28;20203;-76
2023/07/30 09:10:40;;;;;;;5.72;3.03;;;;;;;30.90;33.21;94335.56;5067129;28;20264;-76
2023/07/30 09:13:07;;;;;;;4.93;3.30;;;;;;;31.26;32.92;94329.19;5067182;28;20961;-74
2023/07/30 09:15:37;;;;;;;3.88;3.42;;;;;;;31.75;33.51;94320.53;5067395;28;20218;-73
2023/07/30 09:18:04;;;;;;;5.28;3.40;;;;;;;32.07;32.50;94319.00;5066096;28;20646;-74
2023/07/30 09:20:39;;;;;;;3.85;3.05;;;;;;;32.70;31.06;94325.50;5066996;28;20666;-75
2023/07/30 09:23:07;;;;;;;3.40;2.83;;;;;;;32.93;30.19;94329.59;5067515;28;20199;-75
2023/07/30 09:25:33;;;;;;;3.30;3.00;;;;;;;32.08;30.70;94309.34;5074305;28;20219;-77
2023/07/30 09:28:00;;;;;;;3.15;2.85;;;;;;;32.10;30.75;94323.69;5067927;28;20203;-75
2023/07/30 09:30:28;;;;;;;5.95;2.90;;;;;;;32.35;30.22;94306.44;5067739;28;20207;-75
2023/07/30 09:32:56;;;;;;;3.30;2.70;;;;;;;32.56;31.16;94315.00;5068037;28;20235;-76
2023/07/30 09:35:25;;;;;;;3.33;2.70;;;;;;;32.08;28.73;94309.34;5067587;28;20195;-74
2023/07/30 09:37:59;;;;;;;4.20;2.80;;;;;;;32.06;29.73;94309.81;5069310;28;20203;-74
2023/07/30 09:40:33;;;;;;;3.30;2.78;;;;;;;32.59;28.85;94308.44;5062602;28;20277;-75
2023/07/30 09:42:59;;;;;;;4.63;2.90;;;;;;;33.22;29.39;94293.13;5067491;28;20792;-75
2023/07/30 09:45:27;;;;;;;3.95;2.85;;;;;;;32.97;30.38;94297.25;5067756;28;20214;-74
2023/07/30 09:47:56;;;;;;;4.13;3.00;;;;;;;33.58;29.69;94289.19;5068201;28;20199;-74
2023/07/30 09:50:23;;;;;;;4.03;2.92;;;;;;;33.57;29.02;94290.47;5067657;28;20225;-74
2023/07/30 09:52:50;;;;;;;5.05;3.17;;;;;;;33.56;29.14;94288.91;5067422;28;20203;-74
2023/07/30 09:55:19;;;;;;;3.45;2.65;;;;;;;33.81;28.13;94284.75;5069229;28;20217;-75
2023/07/30 09:57:46;;;;;;;3.38;2.80;;;;;;;34.07;28.55;94284.88;5071679;28;20306;-74
2023/07/30 10:00:14;;;;;;;4.65;2.83;;;;;;;33.74;27.95;94280.28;5077940;28;20206;-75
2023/07/30 10:02:46;;;;;;;3.67;2.72;;;;;;;33.96;27.92;94287.53;5071451;28;20276;-77
2023/07/30 10:05:16;;;;;;;2.90;2.60;;;;;;;33.91;28.10;94285.38;5071625;28;20191;-75
2023/07/30 10:07:48;;;;;;;3.33;2.65;;;;;;;33.64;28.25;94273.19;5085507;28;20203;-75
2023/07/30 10:10:15;;;;;;;3.80;3.38;;;;;;;32.56;29.96;94281.34;5070937;28;20196;-74
2023/07/30 10:12:44;;;;;;;3.92;3.28;;;;;;;32.36;29.78;94279.94;5070217;28;20207;-75
2023/07/30 10:15:11;;;;;;;5.65;3.53;;;;;;;32.38;29.87;94260.59;5070214;28;20210;-75
2023/07/30 10:17:38;;;;;;;3.95;3.10;;;;;;;32.11;30.99;94269.16;5071017;28;20198;-74
2023/07/30 10:20:28;;;;;;;6.93;3.30;;;;;;;32.46;30.29;94261.78;5070949;28;20245;-74
2023/07/30 10:22:56;;;;;;;3.47;2.65;;;;;;;31.67;30.72;94257.69;5071418;28;20300;-76
2023/07/30 10:25:27;;;;;;;3.78;3.20;;;;;;;31.95;31.30;94255.53;5071212;28;20211;-77
2023/07/30 10:27:56;;;;;;;4.55;3.30;;;;;;;32.59;30.21;94246.72;5070876;28;20771;-77
2023/07/30 10:30:23;;;;;;;3.85;3.08;;;;;;;32.88;30.02;94246.81;5070602;28;20226;-75
2023/07/30 10:33:02;;;;;;;3.40;2.90;;;;;;;33.67;28.63;94249.75;5072587;28;20233;-75
2023/07/30 10:35:37;;;;;;;20.23;4.97;;;;;;;34.03;28.62;94236.53;5068507;28;20279;-75
2023/07/30 10:38:14;;;;;;;4.30;3.15;;;;;;;34.19;29.52;94242.34;5066463;28;20199;-75
2023/07/30 10:40:41;;;;;;;4.25;3.35;;;;;;;33.91;28.25;94240.41;5070630;28;20230;-75
2023/07/30 10:43:16;;;;;;;3.78;3.20;;;;;;;33.60;29.42;94238.13;5072639;28;20254;-74
2023/07/30 10:45:49;;;;;;;3.95;2.85;;;;;;;33.58;28.63;94227.38;5070361;28;20245;-75
2023/07/30 10:48:16;;;;;;;5.75;3.40;;;;;;;34.33;29.31;94232.34;5070788;28;20199;-75
2023/07/30 10:50:48;;;;;;;3.78;3.10;;;;;;;34.32;27.98;94224.38;5070310;28;20195;-74
2023/07/30 10:53:15;;;;;;;5.57;3.00;;;;;;;34.48;27.99;94221.78;5057596;28;20217;-74
2023/07/30 10:55:42;;;;;;;4.65;3.50;;;;;;;33.24;28.52;94211.19;5070345;28;20202;-74
2023/07/30 10:58:09;;;;;;;3.70;3.13;;;;;;;32.78;29.49;94211.69;5069965;28;20195;-74
2023/07/30 11:00:38;;;;;;;4.97;3.45;;;;;;;33.07;29.31;94208.91;5080907;28;20198;-75
2023/07/30 11:03:05;;;;;;;3.58;3.20;;;;;;;33.31;29.25;94208.03;5070267;28;20300;-75
2023/07/30 11:05:32;;;;;;;4.07;3.60;;;;;;;32.90;29.82;94209.84;5070284;28;20202;-75
2023/07/30 11:07:59;;;;;;;4.15;3.22;;;;;;;32.73;29.09;94201.91;5070386;28;20207;-77
2023/07/30 11:10:26;;;;;;;4.32;3.35;;;;;;;32.82;29.29;94189.81;5069980;28;20206;-75
2023/07/30 11:12:52;;;;;;;6.88;3.42;;;;;;;33.13;29.21;94183.72;5070869;28;20316;-74
2023/07/30 11:15:19;;;;;;;5.88;3.80;;;;;;;32.73;29.61;94184.28;5069455;28;20207;-73
2023/07/30 11:17:47;;;;;;;4.63;3.55;;;;;;;32.27;30.02;94187.44;5068928;28;20203;-75
2023/07/30 11:20:26;;;;;;;4.85;3.22;;;;;;;31.95;30.64;94193.91;5070262;28;20608;-78
2023/07/30 11:22:53;;;;;;;3.83;3.50;;;;;;;32.20;30.75;94176.63;5069387;28;20720;-73
2023/07/30 11:25:20;;;;;;;4.22;3.60;;;;;;;32.02;30.44;94182.31;5069499;28;20198;-75
2023/07/30 11:27:48;;;;;;;4.43;3.72;;;;;;;32.12;30.37;94175.38;5069694;28;20223;-77
2023/07/30 11:30:14;;;;;;;5.00;3.63;;;;;;;32.51;30.87;94178.25;5070333;28;20203;-76
2023/07/30 11:32:44;;;;;;;4.85;3.55;;;;;;;32.53;29.32;94181.34;5069742;28;20230;-76
2023/07/30 11:35:13;;;;;;;4.70;3.47;;;;;;;32.74;29.49;94169.00;5070104;28;20570;-74